sensor_id;sensor_type;location;lat;lon;timestamp;noise_LAeq;noise_LA_min;noise_LA_max;noise_LA01;noise_LA95
49543;Laerm;35435;48.792;8.962;2022-09-09T00:00:15;42.37;38.93;46.08;;
49543;Laerm;35435;48.792;8.962;2022-09-09T00:02:44;43.19;39.58;47.45;;
49543;Laerm;35435;48.792;8.962;2022-09-09T00:15:16;44.99;40.57;58.44;;
49543;Laerm;35435;48.792;8.962;2022-09-09T00:20:16;45.79;38.95;55.96;;
49543;Laerm;35435;48.792;8.962;2022-09-09T00:22:51;45.63;39.73;57.37;;
49543;Laerm;35435;48.792;8.962;2022-09-09T00:25:16;46.11;39.34;57.35;;
49543;Laerm;35435;48.792;8.962;2022-09-09T00:27:47;44.50;39.02;52.44;;
49543;Laerm;35435;48.792;8.962;2022-09-09T00:30:19;45.95;40.28;55.35;;
49543;Laerm;35435;48.792;8.962;2022-09-09T00:32:48;45.48;39.58;56.06;;
49543;Laerm;35435;48.792;8.962;2022-09-09T00:37:41;44.16;40.16;48.64;;
49543;Laerm;35435;48.792;8.962;2022-09-09T00:40:24;42.98;39.64;47.59;;
49543;Laerm;35435;48.792;8.962;2022-09-09T00:43:00;43.37;39.64;48.41;;
49543;Laerm;35435;48.792;8.962;2022-09-09T00:45:38;42.60;39.37;51.16;;
49543;Laerm;35435;48.792;8.962;2022-09-09T00:47:59;43.34;39.61;46.70;;
49543;Laerm;35435;48.792;8.962;2022-09-09T00:55:40;41.13;37.70;44.10;;
49543;Laerm;35435;48.792;8.962;2022-09-09T00:58:06;41.92;38.98;44.46;;
49543;Laerm;35435;48.792;8.962;2022-09-09T01:00:52;42.76;39.43;46.05;;
49543;Laerm;35435;48.792;8.962;2022-09-09T01:08:26;46.98;37.96;56.44;;
49543;Laerm;35435;48.792;8.962;2022-09-09T01:10:49;47.69;41.10;61.30;;
49543;Laerm;35435;48.792;8.962;2022-09-09T01:13:25;44.42;40.05;51.50;;
49543;Laerm;35435;48.792;8.962;2022-09-09T01:15:51;42.87;39.61;48.83;;
49543;Laerm;35435;48.792;8.962;2022-09-09T01:18:21;42.98;40.00;48.77;;
49543;Laerm;35435;48.792;8.962;2022-09-09T01:26:13;43.24;39.87;48.23;;
49543;Laerm;35435;48.792;8.962;2022-09-09T01:28:40;42.95;38.60;48.67;;
49543;Laerm;35435;48.792;8.962;2022-09-09T01:31:06;42.85;38.92;47.69;;
49543;Laerm;35435;48.792;8.962;2022-09-09T01:33:32;44.49;39.95;53.82;;
49543;Laerm;35435;48.792;8.962;2022-09-09T01:36:05;45.82;38.71;55.90;;
49543;Laerm;35435;48.792;8.962;2022-09-09T01:38:31;44.44;38.92;55.20;;
49543;Laerm;35435;48.792;8.962;2022-09-09T01:40:58;44.09;40.16;54.38;;
49543;Laerm;35435;48.792;8.962;2022-09-09T01:43:24;43.13;39.12;49.68;;
49543;Laerm;35435;48.792;8.962;2022-09-09T01:45:51;42.02;38.78;44.86;;
49543;Laerm;35435;48.792;8.962;2022-09-09T01:48:17;41.60;37.79;45.90;;
49543;Laerm;35435;48.792;8.962;2022-09-09T01:50:44;42.36;39.28;46.31;;
49543;Laerm;35435;48.792;8.962;2022-09-09T01:53:09;40.76;37.27;45.01;;
49543;Laerm;35435;48.792;8.962;2022-09-09T01:55:37;41.21;36.57;46.74;;
49543;Laerm;35435;48.792;8.962;2022-09-09T02:00:33;59.43;37.42;81.34;;
49543;Laerm;35435;48.792;8.962;2022-09-09T02:03:05;40.48;36.69;46.82;;
49543;Laerm;35435;48.792;8.962;2022-09-09T02:05:35;39.03;35.80;42.15;;
49543;Laerm;35435;48.792;8.962;2022-09-09T02:08:00;38.97;35.94;41.57;;
49543;Laerm;35435;48.792;8.962;2022-09-09T02:10:31;39.11;36.14;41.40;;
49543;Laerm;35435;48.792;8.962;2022-09-09T02:13:01;39.38;36.63;42.85;;
49543;Laerm;35435;48.792;8.962;2022-09-09T02:15:28;39.27;36.69;41.72;;
49543;Laerm;35435;48.792;8.962;2022-09-09T02:17:50;39.55;37.02;43.06;;
49543;Laerm;35435;48.792;8.962;2022-09-09T02:20:18;39.36;36.74;42.81;;
49543;Laerm;35435;48.792;8.962;2022-09-09T02:22:43;39.46;36.80;41.98;;
49543;Laerm;35435;48.792;8.962;2022-09-09T02:25:11;39.28;36.63;41.77;;
49543;Laerm;35435;48.792;8.962;2022-09-09T02:27:38;39.32;36.45;57.22;;
49543;Laerm;35435;48.792;8.962;2022-09-09T02:30:06;39.26;36.57;41.81;;
49543;Laerm;35435;48.792;8.962;2022-09-09T02:32:32;65.12;36.91;80.39;;
49543;Laerm;35435;48.792;8.962;2022-09-09T02:35:00;44.93;37.12;58.74;;
49543;Laerm;35435;48.792;8.962;2022-09-09T02:37:28;41.05;37.37;44.10;;
49543;Laerm;35435;48.792;8.962;2022-09-09T02:39:54;40.73;37.47;47.63;;
49543;Laerm;35435;48.792;8.962;2022-09-09T02:42:19;42.09;38.37;46.77;;
49543;Laerm;35435;48.792;8.962;2022-09-09T02:44:45;59.55;38.37;78.28;;
49543;Laerm;35435;48.792;8.962;2022-09-09T02:49:57;43.24;38.52;50.52;;
49543;Laerm;35435;48.792;8.962;2022-09-09T02:52:23;42.77;38.95;48.32;;
49543;Laerm;35435;48.792;8.962;2022-09-09T02:54:49;55.35;38.63;74.64;;
49543;Laerm;35435;48.792;8.962;2022-09-09T02:57:21;43.50;38.92;52.53;;
49543;Laerm;35435;48.792;8.962;2022-09-09T02:59:46;43.90;39.55;55.89;;
49543;Laerm;35435;48.792;8.962;2022-09-09T03:02:12;44.91;39.58;55.50;;
49543;Laerm;35435;48.792;8.962;2022-09-09T03:04:38;44.83;40.87;53.41;;
49543;Laerm;35435;48.792;8.962;2022-09-09T03:07:04;57.12;41.64;77.02;;
49543;Laerm;35435;48.792;8.962;2022-09-09T03:09:29;43.96;40.91;47.34;;
49543;Laerm;35435;48.792;8.962;2022-09-09T03:11:55;43.18;39.75;46.88;;
49543;Laerm;35435;48.792;8.962;2022-09-09T03:14:21;42.56;39.67;50.28;;
49543;Laerm;35435;48.792;8.962;2022-09-09T03:16:48;57.72;39.71;77.36;;
49543;Laerm;35435;48.792;8.962;2022-09-09T03:19:15;42.92;39.87;45.93;;
49543;Laerm;35435;48.792;8.962;2022-09-09T03:21:41;43.73;40.64;49.96;;
49543;Laerm;35435;48.792;8.962;2022-09-09T03:24:06;43.70;40.93;48.74;;
49543;Laerm;35435;48.792;8.962;2022-09-09T03:26:32;43.73;40.34;47.30;;
49543;Laerm;35435;48.792;8.962;2022-09-09T03:28:57;45.80;42.03;53.46;;
49543;Laerm;35435;48.792;8.962;2022-09-09T03:31:24;59.27;41.99;75.48;;
49543;Laerm;35435;48.792;8.962;2022-09-09T03:33:50;46.05;41.14;59.18;;
49543;Laerm;35435;48.792;8.962;2022-09-09T03:36:15;53.50;41.66;65.86;;
49543;Laerm;35435;48.792;8.962;2022-09-09T03:38:41;44.80;41.86;49.19;;
49543;Laerm;35435;48.792;8.962;2022-09-09T03:41:06;45.33;42.27;50.57;;
49543;Laerm;35435;48.792;8.962;2022-09-09T03:43:33;62.13;43.41;77.59;;
49543;Laerm;35435;48.792;8.962;2022-09-09T03:45:58;58.90;43.76;77.87;;
49543;Laerm;35435;48.792;8.962;2022-09-09T03:48:24;57.34;42.26;72.59;;
49543;Laerm;35435;48.792;8.962;2022-09-09T03:50:50;45.20;41.94;53.72;;
49543;Laerm;35435;48.792;8.962;2022-09-09T03:53:16;44.79;42.59;47.56;;
49543;Laerm;35435;48.792;8.962;2022-09-09T03:55:49;44.14;41.36;47.62;;
49543;Laerm;35435;48.792;8.962;2022-09-09T03:58:15;43.82;41.44;46.74;;
49543;Laerm;35435;48.792;8.962;2022-09-09T04:00:41;56.52;41.84;76.55;;
49543;Laerm;35435;48.792;8.962;2022-09-09T04:03:08;44.44;41.89;55.01;;
49543;Laerm;35435;48.792;8.962;2022-09-09T04:05:34;56.31;41.26;71.34;;
49543;Laerm;35435;48.792;8.962;2022-09-09T04:07:59;43.35;41.36;49.98;;
49543;Laerm;35435;48.792;8.962;2022-09-09T04:10:25;42.77;40.18;45.33;;
49543;Laerm;35435;48.792;8.962;2022-09-09T04:12:51;42.45;40.08;44.91;;
49543;Laerm;35435;48.792;8.962;2022-09-09T04:15:17;60.30;40.91;81.66;;
49543;Laerm;35435;48.792;8.962;2022-09-09T04:17:43;58.47;41.22;77.38;;
49543;Laerm;35435;48.792;8.962;2022-09-09T04:20:09;44.79;41.59;52.01;;
49543;Laerm;35435;48.792;8.962;2022-09-09T04:22:36;49.90;42.83;62.38;;
49543;Laerm;35435;48.792;8.962;2022-09-09T04:25:03;45.35;42.11;58.89;;
49543;Laerm;35435;48.792;8.962;2022-09-09T04:27:29;45.07;42.01;51.27;;
49543;Laerm;35435;48.792;8.962;2022-09-09T04:29:54;57.62;42.35;80.01;;
49543;Laerm;35435;48.792;8.962;2022-09-09T04:32:21;55.77;42.69;71.60;;
49543;Laerm;35435;48.792;8.962;2022-09-09T04:34:47;45.22;42.33;51.31;;
49543;Laerm;35435;48.792;8.962;2022-09-09T04:37:13;44.54;42.78;47.37;;
49543;Laerm;35435;48.792;8.962;2022-09-09T04:39:39;44.83;42.85;55.23;;
49543;Laerm;35435;48.792;8.962;2022-09-09T04:42:04;45.23;42.76;49.20;;
49543;Laerm;35435;48.792;8.962;2022-09-09T04:44:29;46.31;43.04;52.90;;
49543;Laerm;35435;48.792;8.962;2022-09-09T04:46:55;60.97;43.17;78.27;;
49543;Laerm;35435;48.792;8.962;2022-09-09T04:49:21;45.14;42.53;51.56;;
49543;Laerm;35435;48.792;8.962;2022-09-09T04:51:48;45.13;43.19;48.83;;
49543;Laerm;35435;48.792;8.962;2022-09-09T04:54:14;45.17;43.19;49.03;;
49543;Laerm;35435;48.792;8.962;2022-09-09T04:56:39;45.45;43.24;48.90;;
49543;Laerm;35435;48.792;8.962;2022-09-09T04:59:06;46.09;43.15;54.61;;
49543;Laerm;35435;48.792;8.962;2022-09-09T05:01:31;57.75;41.96;73.99;;
49543;Laerm;35435;48.792;8.962;2022-09-09T05:03:57;66.43;42.62;82.31;;
49543;Laerm;35435;48.792;8.962;2022-09-09T05:06:23;44.18;42.06;47.50;;
49543;Laerm;35435;48.792;8.962;2022-09-09T05:08:48;44.55;42.37;48.26;;
49543;Laerm;35435;48.792;8.962;2022-09-09T05:11:27;45.13;42.69;49.94;;
49543;Laerm;35435;48.792;8.962;2022-09-09T05:13:49;48.45;42.75;66.77;;
49543;Laerm;35435;48.792;8.962;2022-09-09T05:16:16;60.17;42.37;79.19;;
49543;Laerm;35435;48.792;8.962;2022-09-09T05:18:42;58.48;42.85;76.22;;
49543;Laerm;35435;48.792;8.962;2022-09-09T05:21:08;44.87;42.50;48.77;;
49543;Laerm;35435;48.792;8.962;2022-09-09T05:23:34;44.71;42.89;47.67;;
49543;Laerm;35435;48.792;8.962;2022-09-09T05:26:00;44.66;42.35;49.62;;
49543;Laerm;35435;48.792;8.962;2022-09-09T05:28:26;48.85;42.71;60.54;;
49543;Laerm;35435;48.792;8.962;2022-09-09T05:30:58;59.14;42.03;77.36;;
49543;Laerm;35435;48.792;8.962;2022-09-09T05:33:24;48.91;42.14;67.27;;
49543;Laerm;35435;48.792;8.962;2022-09-09T05:36:00;67.78;40.03;87.26;;
49543;Laerm;35435;48.792;8.962;2022-09-09T05:38:26;44.76;41.99;50.75;;
49543;Laerm;35435;48.792;8.962;2022-09-09T05:40:52;44.28;42.33;48.90;;
49543;Laerm;35435;48.792;8.962;2022-09-09T05:43:18;45.59;42.49;60.51;;
49543;Laerm;35435;48.792;8.962;2022-09-09T05:45:45;59.08;42.14;79.68;;
49543;Laerm;35435;48.792;8.962;2022-09-09T05:48:12;58.47;43.42;76.41;;
49543;Laerm;35435;48.792;8.962;2022-09-09T05:50:37;45.10;42.82;51.97;;
49543;Laerm;35435;48.792;8.962;2022-09-09T05:53:03;48.61;43.28;57.22;;
49543;Laerm;35435;48.792;8.962;2022-09-09T05:55:28;46.24;42.78;53.57;;
49543;Laerm;35435;48.792;8.962;2022-09-09T05:57:54;45.64;42.35;56.22;;
49543;Laerm;35435;48.792;8.962;2022-09-09T06:00:19;56.44;42.69;75.56;;
49543;Laerm;35435;48.792;8.962;2022-09-09T06:02:50;55.33;42.16;73.36;;
49543;Laerm;35435;48.792;8.962;2022-09-09T06:05:15;46.83;42.18;73.35;;
49543;Laerm;35435;48.792;8.962;2022-09-09T06:07:41;46.94;41.91;71.04;;
49543;Laerm;35435;48.792;8.962;2022-09-09T06:10:07;46.02;41.68;68.57;;
49543;Laerm;35435;48.792;8.962;2022-09-09T06:12:33;45.39;41.51;63.39;;
49543;Laerm;35435;48.792;8.962;2022-09-09T06:14:59;60.03;43.27;79.83;;
49543;Laerm;35435;48.792;8.962;2022-09-09T06:17:24;55.87;42.81;75.80;;
49543;Laerm;35435;48.792;8.962;2022-09-09T06:19:50;56.21;43.55;75.69;;
49543;Laerm;35435;48.792;8.962;2022-09-09T06:22:16;45.14;42.53;51.47;;
49543;Laerm;35435;48.792;8.962;2022-09-09T06:24:41;45.36;42.81;54.46;;
49543;Laerm;35435;48.792;8.962;2022-09-09T06:27:07;45.27;41.70;69.69;;
49543;Laerm;35435;48.792;8.962;2022-09-09T06:29:32;56.81;42.69;78.08;;
49543;Laerm;35435;48.792;8.962;2022-09-09T06:31:58;55.76;42.56;71.63;;
49543;Laerm;35435;48.792;8.962;2022-09-09T06:34:23;44.67;42.55;58.12;;
49543;Laerm;35435;48.792;8.962;2022-09-09T06:36:49;44.84;42.43;49.10;;
49543;Laerm;35435;48.792;8.962;2022-09-09T06:39:14;45.15;42.40;54.62;;
49543;Laerm;35435;48.792;8.962;2022-09-09T06:41:40;45.58;42.93;54.71;;
49543;Laerm;35435;48.792;8.962;2022-09-09T06:44:07;45.15;42.59;58.81;;
49543;Laerm;35435;48.792;8.962;2022-09-09T06:46:32;58.21;41.72;76.96;;
49543;Laerm;35435;48.792;8.962;2022-09-09T06:48:58;58.80;43.41;75.38;;
49543;Laerm;35435;48.792;8.962;2022-09-09T06:51:29;44.58;41.99;58.85;;
49543;Laerm;35435;48.792;8.962;2022-09-09T06:53:53;44.45;41.70;51.34;;
49543;Laerm;35435;48.792;8.962;2022-09-09T06:56:19;44.27;41.75;53.37;;
49543;Laerm;35435;48.792;8.962;2022-09-09T06:58:46;45.17;42.52;59.08;;
49543;Laerm;35435;48.792;8.962;2022-09-09T07:01:20;57.10;42.01;77.17;;
49543;Laerm;35435;48.792;8.962;2022-09-09T07:03:47;55.44;41.64;71.51;;
49543;Laerm;35435;48.792;8.962;2022-09-09T07:06:20;45.81;41.42;66.79;;
49543;Laerm;35435;48.792;8.962;2022-09-09T07:08:55;44.21;41.44;60.90;;
49543;Laerm;35435;48.792;8.962;2022-09-09T07:11:23;45.47;41.75;58.16;;
49543;Laerm;35435;48.792;8.962;2022-09-09T07:13:48;45.37;41.57;60.86;;
49543;Laerm;35435;48.792;8.962;2022-09-09T07:16:18;61.27;42.16;76.04;;
49543;Laerm;35435;48.792;8.962;2022-09-09T07:18:43;46.45;41.84;57.80;;
49543;Laerm;35435;48.792;8.962;2022-09-09T07:21:09;66.56;41.64;81.94;;
49543;Laerm;35435;48.792;8.962;2022-09-09T07:23:35;43.69;41.75;56.93;;
49543;Laerm;35435;48.792;8.962;2022-09-09T07:26:01;43.68;41.20;57.11;;
49543;Laerm;35435;48.792;8.962;2022-09-09T07:28:27;43.71;41.14;49.37;;
49543;Laerm;35435;48.792;8.962;2022-09-09T07:30:54;59.00;41.88;75.79;;
49543;Laerm;35435;48.792;8.962;2022-09-09T07:33:20;46.61;41.79;63.14;;
49543;Laerm;35435;48.792;8.962;2022-09-09T07:35:45;43.19;40.55;55.69;;
49543;Laerm;35435;48.792;8.962;2022-09-09T07:38:11;43.33;41.06;54.61;;
49543;Laerm;35435;48.792;8.962;2022-09-09T07:40:36;44.03;41.16;56.95;;
49543;Laerm;35435;48.792;8.962;2022-09-09T07:43:02;43.52;40.85;58.73;;
49543;Laerm;35435;48.792;8.962;2022-09-09T07:45:27;59.95;41.63;79.27;;
49543;Laerm;35435;48.792;8.962;2022-09-09T07:47:57;58.74;41.63;76.59;;
49543;Laerm;35435;48.792;8.962;2022-09-09T07:50:23;42.78;39.73;55.48;;
49543;Laerm;35435;48.792;8.962;2022-09-09T07:52:49;43.68;40.08;55.43;;
49543;Laerm;35435;48.792;8.962;2022-09-09T07:55:14;42.77;39.89;52.89;;
49543;Laerm;35435;48.792;8.962;2022-09-09T07:57:40;42.30;39.81;56.42;;
49543;Laerm;35435;48.792;8.962;2022-09-09T08:00:05;55.64;40.55;72.72;;
49543;Laerm;35435;48.792;8.962;2022-09-09T08:02:31;55.00;41.22;72.99;;
49543;Laerm;35435;48.792;8.962;2022-09-09T08:04:56;44.57;39.78;57.05;;
49543;Laerm;35435;48.792;8.962;2022-09-09T08:07:22;42.95;40.31;55.57;;
49543;Laerm;35435;48.792;8.962;2022-09-09T08:09:48;44.33;41.46;53.73;;
49543;Laerm;35435;48.792;8.962;2022-09-09T08:12:14;43.72;41.38;58.65;;
49543;Laerm;35435;48.792;8.962;2022-09-09T08:14:39;46.99;41.30;58.69;;
49543;Laerm;35435;48.792;8.962;2022-09-09T08:17:05;58.96;40.23;77.40;;
49543;Laerm;35435;48.792;8.962;2022-09-09T08:19:30;56.59;42.32;73.15;;
49543;Laerm;35435;48.792;8.962;2022-09-09T08:21:58;45.13;41.82;57.54;;
49543;Laerm;35435;48.792;8.962;2022-09-09T08:24:23;47.60;41.46;61.96;;
49543;Laerm;35435;48.792;8.962;2022-09-09T08:26:49;48.09;41.78;65.68;;
49543;Laerm;35435;48.792;8.962;2022-09-09T08:29:14;58.62;41.89;85.75;;
49543;Laerm;35435;48.792;8.962;2022-09-09T08:34:07;44.88;41.66;59.19;;
49543;Laerm;35435;48.792;8.962;2022-09-09T08:36:38;44.71;41.61;61.68;;
49543;Laerm;35435;48.792;8.962;2022-09-09T08:39:04;44.74;41.91;55.08;;
49543;Laerm;35435;48.792;8.962;2022-09-09T08:44:08;47.91;41.86;65.21;;
49543;Laerm;35435;48.792;8.962;2022-09-09T08:46:57;62.26;42.79;77.44;;
49543;Laerm;35435;48.792;8.962;2022-09-09T08:49:30;64.38;42.50;81.85;;
49543;Laerm;35435;48.792;8.962;2022-09-09T08:51:53;44.27;41.88;48.90;;
49543;Laerm;35435;48.792;8.962;2022-09-09T08:54:20;44.38;41.91;60.20;;
49543;Laerm;35435;48.792;8.962;2022-09-09T08:56:46;44.38;42.06;56.78;;
49543;Laerm;35435;48.792;8.962;2022-09-09T08:59:12;45.82;42.27;56.82;;
49543;Laerm;35435;48.792;8.962;2022-09-09T09:01:41;60.72;42.38;77.61;;
49543;Laerm;35435;48.792;8.962;2022-09-09T09:06:55;43.56;41.38;58.00;;
49543;Laerm;35435;48.792;8.962;2022-09-09T09:11:49;44.05;41.59;58.30;;
49543;Laerm;35435;48.792;8.962;2022-09-09T09:14:22;45.56;41.53;59.24;;
49543;Laerm;35435;48.792;8.962;2022-09-09T09:19:25;56.99;43.73;70.58;;
49543;Laerm;35435;48.792;8.962;2022-09-09T09:24:19;45.20;42.46;53.24;;
49543;Laerm;35435;48.792;8.962;2022-09-09T09:26:45;44.96;42.79;55.05;;
49543;Laerm;35435;48.792;8.962;2022-09-09T09:29:15;45.68;42.81;52.13;;
49543;Laerm;35435;48.792;8.962;2022-09-09T09:31:38;56.89;42.29;77.76;;
49543;Laerm;35435;48.792;8.962;2022-09-09T09:34:03;56.62;42.68;73.60;;
49543;Laerm;35435;48.792;8.962;2022-09-09T09:39:06;44.45;42.33;57.18;;
49543;Laerm;35435;48.792;8.962;2022-09-09T09:41:38;45.00;42.08;51.49;;
49543;Laerm;35435;48.792;8.962;2022-09-09T09:44:05;49.26;42.78;60.57;;
49543;Laerm;35435;48.792;8.962;2022-09-09T09:46:32;62.10;42.65;80.91;;
49543;Laerm;35435;48.792;8.962;2022-09-09T09:49:04;55.07;42.23;72.41;;
49543;Laerm;35435;48.792;8.962;2022-09-09T09:51:31;44.63;42.24;49.41;;
49543;Laerm;35435;48.792;8.962;2022-09-09T09:56:36;47.28;41.96;60.88;;
49543;Laerm;35435;48.792;8.962;2022-09-09T09:59:02;45.31;41.46;54.35;;
49543;Laerm;35435;48.792;8.962;2022-09-09T10:01:28;56.87;41.18;76.14;;
49543;Laerm;35435;48.792;8.962;2022-09-09T10:04:03;44.84;41.53;59.65;;
49543;Laerm;35435;48.792;8.962;2022-09-09T10:06:30;57.26;43.28;78.59;;
49543;Laerm;35435;48.792;8.962;2022-09-09T10:08:55;45.09;41.40;62.22;;
49543;Laerm;35435;48.792;8.962;2022-09-09T10:11:34;44.22;41.08;61.26;;
49543;Laerm;35435;48.792;8.962;2022-09-09T10:19:19;59.95;42.40;77.11;;
49543;Laerm;35435;48.792;8.962;2022-09-09T10:27:43;46.11;40.93;70.23;;
49543;Laerm;35435;48.792;8.962;2022-09-09T10:36:56;51.51;45.23;71.44;;
49543;Laerm;35435;48.792;8.962;2022-09-09T10:39:31;54.42;41.57;76.93;;
49543;Laerm;35435;48.792;8.962;2022-09-09T10:41:57;43.75;39.40;57.92;;
49543;Laerm;35435;48.792;8.962;2022-09-09T10:55:10;55.73;49.88;68.39;;
49543;Laerm;35435;48.792;8.962;2022-09-09T10:57:40;48.74;43.13;65.77;;
49543;Laerm;35435;48.792;8.962;2022-09-09T11:00:53;62.75;47.07;79.45;;
49543;Laerm;35435;48.792;8.962;2022-09-09T11:02:34;53.92;47.32;69.30;;
49543;Laerm;35435;48.792;8.962;2022-09-09T11:05:09;56.96;43.08;75.32;;
49543;Laerm;35435;48.792;8.962;2022-09-09T11:10:03;63.60;41.59;83.24;;
49543;Laerm;35435;48.792;8.962;2022-09-09T11:12:25;45.72;41.83;66.74;;
49543;Laerm;35435;48.792;8.962;2022-09-09T11:14:57;60.46;41.28;77.11;;
49543;Laerm;35435;48.792;8.962;2022-09-09T11:20:10;58.38;45.65;75.61;;
49543;Laerm;35435;48.792;8.962;2022-09-09T11:22:35;66.64;44.88;83.55;;
49543;Laerm;35435;48.792;8.962;2022-09-09T11:25:05;52.32;45.79;70.84;;
49543;Laerm;35435;48.792;8.962;2022-09-09T11:27:36;47.71;43.71;63.79;;
49543;Laerm;35435;48.792;8.962;2022-09-09T11:32:48;58.73;43.91;72.55;;
49543;Laerm;35435;48.792;8.962;2022-09-09T11:35:33;47.13;43.18;63.64;;
49543;Laerm;35435;48.792;8.962;2022-09-09T11:38:11;56.08;43.14;70.47;;
49543;Laerm;35435;48.792;8.962;2022-09-09T11:40:34;46.78;43.17;68.05;;
49543;Laerm;35435;48.792;8.962;2022-09-09T11:43:13;44.20;40.69;66.43;;
49543;Laerm;35435;48.792;8.962;2022-09-09T11:45:39;58.61;41.01;75.92;;
49543;Laerm;35435;48.792;8.962;2022-09-09T11:48:05;58.66;40.16;75.15;;
49543;Laerm;35435;48.792;8.962;2022-09-09T11:50:37;43.03;39.18;60.37;;
49543;Laerm;35435;48.792;8.962;2022-09-09T11:53:17;42.50;37.96;58.87;;
49543;Laerm;35435;48.792;8.962;2022-09-09T11:55:33;43.93;39.52;57.76;;
49543;Laerm;35435;48.792;8.962;2022-09-09T11:58:05;43.81;39.97;62.45;;
49543;Laerm;35435;48.792;8.962;2022-09-09T12:03:05;55.27;39.87;72.13;;
49543;Laerm;35435;48.792;8.962;2022-09-09T12:05:44;44.89;40.31;61.65;;
49543;Laerm;35435;48.792;8.962;2022-09-09T12:08:10;45.86;40.16;63.99;;
49543;Laerm;35435;48.792;8.962;2022-09-09T12:10:41;42.83;39.58;57.51;;
49543;Laerm;35435;48.792;8.962;2022-09-09T12:13:24;42.60;39.78;55.90;;
49543;Laerm;35435;48.792;8.962;2022-09-09T12:15:35;58.26;41.18;77.03;;
49543;Laerm;35435;48.792;8.962;2022-09-09T12:18:02;59.50;40.50;75.46;;
49543;Laerm;35435;48.792;8.962;2022-09-09T12:25:32;44.03;40.95;56.56;;
49543;Laerm;35435;48.792;8.962;2022-09-09T12:33:01;55.41;41.91;73.12;;
49543;Laerm;35435;48.792;8.962;2022-09-09T12:35:27;44.86;41.79;57.08;;
49543;Laerm;35435;48.792;8.962;2022-09-09T12:37:56;45.16;41.42;62.27;;
49543;Laerm;35435;48.792;8.962;2022-09-09T12:40:30;45.03;42.65;55.66;;
49543;Laerm;35435;48.792;8.962;2022-09-09T12:42:53;50.22;40.71;66.85;;
49543;Laerm;35435;48.792;8.962;2022-09-09T12:50:20;43.89;41.42;54.83;;
49543;Laerm;35435;48.792;8.962;2022-09-09T12:52:42;46.37;42.11;64.65;;
49543;Laerm;35435;48.792;8.962;2022-09-09T12:55:15;58.05;42.30;79.03;;
49543;Laerm;35435;48.792;8.962;2022-09-09T12:57:35;46.60;42.46;57.19;;
49543;Laerm;35435;48.792;8.962;2022-09-09T13:00:06;57.15;43.32;74.39;;
49543;Laerm;35435;48.792;8.962;2022-09-09T13:02:33;56.49;42.64;75.47;;
49543;Laerm;35435;48.792;8.962;2022-09-09T13:05:06;45.52;41.55;56.39;;
49543;Laerm;35435;48.792;8.962;2022-09-09T13:07:25;53.40;42.56;76.80;;
49543;Laerm;35435;48.792;8.962;2022-09-09T13:09:51;45.29;41.81;54.77;;
49543;Laerm;35435;48.792;8.962;2022-09-09T13:12:18;43.83;40.97;50.75;;
49543;Laerm;35435;48.792;8.962;2022-09-09T13:14:44;59.89;41.57;79.23;;
49543;Laerm;35435;48.792;8.962;2022-09-09T13:17:15;57.59;41.44;75.91;;
49543;Laerm;35435;48.792;8.962;2022-09-09T13:19:44;43.72;41.12;55.46;;
49543;Laerm;35435;48.792;8.962;2022-09-09T13:25:01;44.30;41.24;56.57;;
49543;Laerm;35435;48.792;8.962;2022-09-09T13:29:55;57.63;43.05;77.66;;
49543;Laerm;35435;48.792;8.962;2022-09-09T13:32:22;55.20;40.80;73.52;;
49543;Laerm;35435;48.792;8.962;2022-09-09T13:34:55;57.33;41.24;71.31;;
49543;Laerm;35435;48.792;8.962;2022-09-09T13:37:26;44.45;41.77;51.39;;
49543;Laerm;35435;48.792;8.962;2022-09-09T13:39:52;44.91;42.24;54.88;;
49543;Laerm;35435;48.792;8.962;2022-09-09T13:42:21;44.72;42.08;50.42;;
49543;Laerm;35435;48.792;8.962;2022-09-09T13:44:47;57.98;42.50;76.75;;
49543;Laerm;35435;48.792;8.962;2022-09-09T13:47:17;59.32;42.32;74.13;;
49543;Laerm;35435;48.792;8.962;2022-09-09T13:49:44;48.19;42.58;59.55;;
49543;Laerm;35435;48.792;8.962;2022-09-09T13:52:14;44.85;42.32;56.33;;
49543;Laerm;35435;48.792;8.962;2022-09-09T13:54:42;46.61;42.08;62.27;;
49543;Laerm;35435;48.792;8.962;2022-09-09T13:57:14;45.80;42.52;57.17;;
49543;Laerm;35435;48.792;8.962;2022-09-09T13:59:40;66.24;42.14;86.16;;
49543;Laerm;35435;48.792;8.962;2022-09-09T14:02:06;60.13;43.34;75.53;;
49543;Laerm;35435;48.792;8.962;2022-09-09T14:04:32;45.60;41.48;69.26;;
49543;Laerm;35435;48.792;8.962;2022-09-09T14:06:57;44.31;40.93;49.46;;
49543;Laerm;35435;48.792;8.962;2022-09-09T14:09:23;43.44;41.26;50.45;;
49543;Laerm;35435;48.792;8.962;2022-09-09T14:11:48;46.88;42.24;59.49;;
49543;Laerm;35435;48.792;8.962;2022-09-09T14:14:14;48.21;42.06;60.44;;
49543;Laerm;35435;48.792;8.962;2022-09-09T14:16:39;62.28;46.28;77.53;;
49543;Laerm;35435;48.792;8.962;2022-09-09T14:19:05;46.46;42.30;57.34;;
49543;Laerm;35435;48.792;8.962;2022-09-09T14:21:30;43.80;41.22;48.71;;
49543;Laerm;35435;48.792;8.962;2022-09-09T14:23:56;43.22;40.76;47.99;;
49543;Laerm;35435;48.792;8.962;2022-09-09T14:26:23;44.46;41.42;53.55;;
49543;Laerm;35435;48.792;8.962;2022-09-09T14:28:49;44.67;41.40;56.04;;
49543;Laerm;35435;48.792;8.962;2022-09-09T14:31:15;55.56;41.40;74.80;;
49543;Laerm;35435;48.792;8.962;2022-09-09T14:33:42;56.19;41.61;71.95;;
49543;Laerm;35435;48.792;8.962;2022-09-09T14:36:08;44.89;41.16;53.38;;
49543;Laerm;35435;48.792;8.962;2022-09-09T14:38:35;44.12;41.61;64.35;;
49543;Laerm;35435;48.792;8.962;2022-09-09T14:41:02;42.83;39.99;58.91;;
49543;Laerm;35435;48.792;8.962;2022-09-09T14:43:28;45.54;40.56;55.29;;
49543;Laerm;35435;48.792;8.962;2022-09-09T14:45:55;62.12;41.61;80.16;;
49543;Laerm;35435;48.792;8.962;2022-09-09T14:48:21;46.44;40.28;59.57;;
49543;Laerm;35435;48.792;8.962;2022-09-09T14:50:46;45.91;40.64;58.66;;
49543;Laerm;35435;48.792;8.962;2022-09-09T14:53:11;44.04;40.69;57.68;;
49543;Laerm;35435;48.792;8.962;2022-09-09T14:55:37;64.92;40.41;82.07;;
49543;Laerm;35435;48.792;8.962;2022-09-09T14:58:03;44.39;40.64;57.33;;
49543;Laerm;35435;48.792;8.962;2022-09-09T15:00:29;56.60;40.41;76.01;;
49543;Laerm;35435;48.792;8.962;2022-09-09T15:02:54;56.60;39.78;73.65;;
49543;Laerm;35435;48.792;8.962;2022-09-09T15:05:20;56.56;39.97;75.15;;
49543;Laerm;35435;48.792;8.962;2022-09-09T15:07:45;41.64;39.46;56.52;;
49543;Laerm;35435;48.792;8.962;2022-09-09T15:10:12;42.59;39.78;55.33;;
49543;Laerm;35435;48.792;8.962;2022-09-09T15:12:37;44.28;40.53;57.65;;
49543;Laerm;35435;48.792;8.962;2022-09-09T15:15:04;59.38;41.10;77.89;;
49543;Laerm;35435;48.792;8.962;2022-09-09T15:17:29;60.72;39.78;79.44;;
49543;Laerm;35435;48.792;8.962;2022-09-09T15:19:54;42.38;39.84;53.71;;
49543;Laerm;35435;48.792;8.962;2022-09-09T15:22:20;43.68;40.27;56.87;;
49543;Laerm;35435;48.792;8.962;2022-09-09T15:24:45;43.59;40.03;59.44;;
49543;Laerm;35435;48.792;8.962;2022-09-09T15:27:12;42.79;39.67;53.70;;
49543;Laerm;35435;48.792;8.962;2022-09-09T15:29:39;55.94;41.28;73.27;;
49543;Laerm;35435;48.792;8.962;2022-09-09T15:32:05;55.55;40.26;72.49;;
49543;Laerm;35435;48.792;8.962;2022-09-09T15:34:30;44.90;40.23;57.40;;
49543;Laerm;35435;48.792;8.962;2022-09-09T15:36:56;42.78;39.95;54.66;;
49543;Laerm;35435;48.792;8.962;2022-09-09T15:39:21;42.45;39.12;54.38;;